Time;durP1;ratioP1;P1;durP2;ratioP2;P2;SDS_P1;SDS_P2;PMS_P1;PMS_P2;Temp;Humidity;BMP_temperature;BMP_pressure;BME280_temperature;BME280_humidity;BME280_pressure;Samples;Min_cycle;Max_cycle;Signal;HPM_P1;HPM_P2
2022/03/21 00:01:13;;;;;;;19.73;15.63;;;5.10;1.00;;;4.90;39.06;103203.81;4975538;28;20191;-68
2022/03/21 00:03:42;;;;;;;17.90;13.88;;;5.10;1.00;;;4.81;39.25;103199.97;4975519;28;20552;-68
2022/03/21 00:06:11;;;;;;;17.75;14.43;;;5.00;1.00;;;5.01;38.96;103213.78;4975889;28;20574;-67
2022/03/21 00:08:43;;;;;;;18.67;15.02;;;5.10;1.00;;;4.82;39.46;103209.75;4975557;28;20203;-66
2022/03/21 00:11:12;;;;;;;22.67;15.00;;;5.00;1.00;;;4.94;38.88;103209.84;4975418;28;20377;-68
2022/03/21 00:13:42;;;;;;;19.40;14.85;;;5.10;1.00;;;5.01;39.12;103201.25;4975579;28;20263;-67
2022/03/21 00:16:12;;;;;;;17.48;13.13;;;5.10;1.00;;;5.12;38.69;103203.16;4975539;28;20195;-67
2022/03/21 00:18:42;;;;;;;17.77;14.45;;;5.20;1.00;;;5.01;39.14;103200.38;4975201;28;20215;-67
2022/03/21 00:21:11;;;;;;;18.02;14.45;;;5.20;1.00;;;4.89;39.51;103209.31;4974802;28;20226;-67
2022/03/21 00:23:40;;;;;;;18.80;13.48;;;5.10;1.00;;;4.72;39.78;103200.63;4974982;28;20195;-67
2022/03/21 00:26:09;;;;;;;15.80;14.07;;;5.00;1.00;;;4.91;39.36;103210.06;4974797;28;20222;-67
2022/03/21 00:28:38;;;;;;;21.20;14.20;;;5.00;1.00;;;4.77;39.67;103203.84;4974783;28;20219;-67
2022/03/21 00:31:07;;;;;;;19.25;14.55;;;4.90;1.00;;;4.81;39.46;103208.03;4974482;28;20191;-67
2022/03/21 00:33:37;;;;;;;18.55;15.20;;;4.90;1.00;;;4.85;39.68;103205.13;4974481;28;20351;-67
2022/03/21 00:36:08;;;;;;;20.52;13.82;;;4.90;1.00;;;4.87;39.62;103209.41;4974638;28;20183;-67
2022/03/21 00:38:51;;;;;;;18.98;14.38;;;4.90;1.00;;;4.69;39.76;103214.28;4974541;28;20203;-68
2022/03/21 00:41:21;;;;;;;21.05;14.52;;;4.90;1.00;;;4.47;40.40;103218.53;4974811;28;20530;-67
2022/03/21 00:43:52;;;;;;;20.20;14.55;;;4.70;1.00;;;4.56;40.06;103215.22;4974729;28;20187;-67
2022/03/21 00:46:21;;;;;;;18.65;13.50;;;4.70;1.00;;;4.66;39.81;103216.28;4974555;28;20250;-67
2022/03/21 00:48:52;;;;;;;16.83;13.35;;;4.80;1.00;;;4.44;40.13;103218.75;4974700;28;20258;-67
2022/03/21 00:51:21;;;;;;;17.63;14.70;;;4.70;1.00;;;4.56;40.24;103215.22;4975159;28;20175;-69
2022/03/21 00:53:50;;;;;;;19.90;16.08;;;4.60;1.00;;;4.51;39.97;103215.53;4975194;28;20707;-68
2022/03/21 00:56:19;;;;;;;19.20;14.25;;;4.70;1.00;;;4.42;40.21;103218.84;4975464;28;20719;-66
2022/03/21 00:58:48;;;;;;;16.98;13.63;;;4.60;1.00;;;4.29;40.63;103224.22;4974877;28;20211;-68
2022/03/21 01:01:17;;;;;;;21.98;14.48;;;4.50;1.00;;;4.22;40.80;103216.69;4974935;28;20179;-67
2022/03/21 01:03:46;;;;;;;17.73;14.00;;;4.50;1.00;;;4.23;40.98;103218.41;4974721;28;20175;-67
2022/03/21 01:06:16;;;;;;;18.75;14.07;;;4.40;1.00;;;4.25;41.02;103224.53;4976572;28;20171;-67
2022/03/21 01:08:45;;;;;;;20.10;14.75;;;4.40;1.00;;;4.20;41.08;103223.97;4978036;28;20222;-67
2022/03/21 01:11:14;;;;;;;23.30;16.83;;;4.40;1.00;;;4.34;40.73;103221.22;4978841;28;20259;-68
2022/03/21 01:13:43;;;;;;;19.90;14.57;;;4.40;1.00;;;4.19;40.67;103220.44;4977452;28;20254;-68
2022/03/21 01:16:13;;;;;;;24.50;16.77;;;4.40;1.00;;;4.14;41.05;103203.81;4978437;28;20187;-68
2022/03/21 01:18:49;;;;;;;23.80;17.05;;;4.30;1.00;;;4.08;41.21;103209.56;4977313;28;20207;-67
2022/03/21 01:21:20;;;;;;;22.10;16.65;;;4.30;1.00;;;4.06;41.41;103210.66;4977104;28;20194;-68
2022/03/21 01:23:49;;;;;;;24.75;18.77;;;4.20;1.00;;;4.02;41.24;103209.97;4977718;28;20183;-67
2022/03/21 01:26:18;;;;;;;23.73;16.98;;;4.20;1.00;;;4.02;41.44;103203.78;4978463;28;20251;-67
2022/03/21 01:28:47;;;;;;;22.08;16.90;;;4.20;1.00;;;3.90;41.41;103205.47;4978844;28;20222;-67
2022/03/21 01:31:16;;;;;;;25.83;18.90;;;4.10;1.00;;;3.77;41.64;103205.44;4976799;28;20217;-68
2022/03/21 01:33:45;;;;;;;19.95;14.43;;;4.10;1.00;;;3.92;41.34;103199.03;4977174;28;20215;-67
2022/03/21 01:36:14;;;;;;;22.23;16.10;;;4.10;1.00;;;3.83;41.75;103188.94;4976020;28;20198;-67
2022/03/21 01:38:44;;;;;;;19.77;15.40;;;4.10;1.00;;;3.79;41.95;103183.88;4974380;28;20214;-68
2022/03/21 01:41:13;;;;;;;20.67;17.40;;;4.00;1.00;;;3.54;42.37;103187.31;4974211;28;20255;-67
2022/03/21 01:44:00;;;;;;;24.58;15.30;;;3.90;1.00;;;3.68;42.25;103186.44;4974096;28;20183;-67
2022/03/21 01:46:30;;;;;;;18.73;14.23;;;3.90;1.00;;;3.72;42.22;103191.50;4974296;28;20201;-68
2022/03/21 01:49:00;;;;;;;19.23;15.00;;;3.90;1.00;;;3.81;41.84;103180.16;4974506;28;20662;-67
2022/03/21 01:51:30;;;;;;;17.25;15.38;;;3.90;1.00;;;3.72;42.01;103190.63;4975426;28;20259;-66
2022/03/21 01:56:52;;;;;;;18.10;14.00;;;4.00;1.00;;;3.88;41.50;103181.44;4974325;28;20179;-68
2022/03/21 01:59:22;;;;;;;21.98;13.90;;;4.00;1.00;;;3.85;41.81;103181.66;4974433;28;20187;-67
2022/03/21 02:01:52;;;;;;;20.40;16.17;;;4.00;1.00;;;3.78;41.78;103177.66;4974242;28;20221;-66
2022/03/21 02:04:22;;;;;;;21.55;15.10;;;4.00;1.00;;;3.81;41.83;103174.81;4974366;28;20179;-66
2022/03/21 02:06:51;;;;;;;20.38;14.75;;;4.00;1.00;;;3.84;41.91;103179.94;4973920;28;20183;-66
2022/03/21 02:09:22;;;;;;;22.30;12.55;;;4.00;1.00;;;3.73;41.96;103182.47;4973710;28;20180;-68
2022/03/21 02:11:51;;;;;;;15.02;13.05;;;3.90;1.00;;;3.77;41.99;103177.78;4973900;28;20250;-67
2022/03/21 02:14:21;;;;;;;18.25;13.88;;;3.90;1.00;;;3.63;42.10;103186.72;4974882;28;20208;-68
2022/03/21 02:16:50;;;;;;;22.10;15.18;;;3.80;1.00;;;3.52;42.58;103181.22;4974998;28;20186;-68
2022/03/21 02:19:28;;;;;;;17.27;13.05;;;3.80;1.00;;;3.48;42.66;103174.38;4975726;28;20222;-68
2022/03/21 02:22:17;;;;;;;18.05;12.77;;;3.70;1.00;;;3.56;42.75;103174.72;4973974;28;20171;-67
2022/03/21 02:25:01;;;;;;;20.13;15.05;;;3.70;1.00;;;3.51;42.65;103168.81;4974334;28;20542;-67
2022/03/21 02:27:36;;;;;;;21.77;15.00;;;3.70;1.00;;;3.54;42.52;103165.91;4977050;28;20237;-67
2022/03/21 02:30:07;;;;;;;19.15;14.90;;;3.70;1.00;;;3.45;42.60;103166.53;4977880;28;20176;-67
2022/03/21 02:32:37;;;;;;;19.77;13.82;;;3.60;1.00;;;3.47;42.63;103169.97;4981581;28;20214;-67
2022/03/21 02:35:12;;;;;;;20.85;14.90;;;3.60;1.00;;;3.41;42.74;103175.72;4982256;28;20171;-67
2022/03/21 02:37:46;;;;;;;18.00;12.73;;;3.60;1.00;;;3.35;42.54;103178.78;4982811;28;20217;-68
2022/03/21 02:40:17;;;;;;;19.45;13.20;;;3.50;1.00;;;3.40;42.65;103171.31;4986464;28;20182;-68
2022/03/21 02:42:49;;;;;;;24.55;14.95;;;3.50;1.00;;;3.20;42.87;103180.63;4978664;28;20188;-67
2022/03/21 02:45:18;;;;;;;22.38;14.13;;;3.50;1.00;;;3.23;42.97;103174.25;4977613;28;20168;-67
2022/03/21 02:47:47;;;;;;;22.20;14.85;;;3.40;1.00;;;3.22;43.01;103183.22;4977331;28;20227;-67
2022/03/21 02:50:23;;;;;;;22.13;15.30;;;3.40;1.00;;;3.20;43.20;103171.75;4977536;28;20637;-68
2022/03/21 02:52:55;;;;;;;19.88;14.93;;;3.40;1.00;;;3.10;43.45;103176.81;4978219;28;20195;-67
2022/03/21 02:55:24;;;;;;;17.65;13.50;;;3.30;1.00;;;2.94;43.17;103165.41;4978422;28;20203;-66
2022/03/21 02:57:55;;;;;;;19.83;14.68;;;3.20;1.00;;;3.17;43.03;103172.81;4977460;28;20215;-67
2022/03/21 03:00:24;;;;;;;19.13;13.73;;;3.20;1.00;;;3.15;42.88;103176.56;4977197;28;20206;-67
2022/03/21 03:02:53;;;;;;;18.80;13.77;;;3.30;1.00;;;3.29;42.56;103177.34;4977206;28;20186;-67
2022/03/21 03:05:22;;;;;;;16.05;13.05;;;3.40;1.00;;;3.18;43.19;103171.88;4976835;28;20171;-66
2022/03/21 03:07:51;;;;;;;19.27;15.13;;;3.30;1.00;;;3.07;43.29;103187.75;4976633;28;20218;-68
2022/03/21 03:10:20;;;;;;;20.90;14.35;;;3.30;1.00;;;3.09;43.01;103185.84;4976561;28;20191;-68
2022/03/21 03:12:49;;;;;;;22.20;15.23;;;3.30;1.00;;;3.08;43.21;103186.78;4976443;28;20755;-67
2022/03/21 03:15:20;;;;;;;19.58;15.45;;;3.30;1.00;;;3.02;43.41;103190.72;4976956;28;20183;-66
2022/03/21 03:17:49;;;;;;;20.77;16.65;;;3.20;1.00;;;3.10;43.15;103181.34;4976525;28;20213;-67
2022/03/21 03:20:19;;;;;;;22.20;17.17;;;3.20;1.00;;;2.93;43.52;103175.25;4976463;28;20175;-67
2022/03/21 03:22:48;;;;;;;22.20;16.52;;;3.20;1.00;;;2.96;43.36;103180.38;4976417;28;20397;-67
2022/03/21 03:25:17;;;;;;;22.90;16.23;;;3.20;1.00;;;3.05;43.21;103182.47;4976481;28;20180;-67
2022/03/21 03:27:46;;;;;;;23.75;16.38;;;3.20;1.00;;;3.02;43.23;103176.47;4976408;28;20791;-67
2022/03/21 03:30:15;;;;;;;18.15;16.20;;;3.20;1.00;;;2.95;43.36;103169.81;4976273;28;20187;-68
2022/03/21 03:32:47;;;;;;;25.33;16.50;;;3.10;1.00;;;3.00;43.22;103171.22;4976348;28;20195;-67
2022/03/21 03:35:16;;;;;;;19.08;16.25;;;3.10;1.00;;;2.92;43.43;103176.19;4976607;28;20669;-67
2022/03/21 03:37:46;;;;;;;19.65;16.17;;;3.10;1.00;;;2.91;43.54;103169.13;4975468;28;20464;-68
2022/03/21 03:40:17;;;;;;;30.65;17.52;;;3.10;1.00;;;2.86;43.68;103170.38;4977146;28;20629;-66
2022/03/21 03:42:47;;;;;;;29.60;18.30;;;3.00;1.00;;;2.94;43.36;103170.75;4976275;28;20195;-67
2022/03/21 03:45:16;;;;;;;20.27;18.05;;;3.00;1.00;;;2.87;43.67;103169.41;4976911;28;20705;-66
2022/03/21 03:47:46;;;;;;;28.63;17.63;;;3.00;1.00;;;2.76;43.97;103172.75;4976645;28;20210;-67
2022/03/21 03:50:15;;;;;;;24.83;16.27;;;3.00;1.00;;;2.73;43.95;103169.44;4976069;28;20196;-66
2022/03/21 03:52:46;;;;;;;21.75;16.60;;;2.90;1.00;;;2.77;43.92;103163.78;4975642;28;20192;-67
2022/03/21 03:55:17;;;;;;;32.13;18.48;;;2.90;1.00;;;2.75;43.92;103165.72;4976028;28;20204;-66
2022/03/21 03:57:47;;;;;;;25.48;17.40;;;2.90;1.00;;;2.79;43.88;103164.56;4976154;28;20647;-67
2022/03/21 04:00:18;;;;;;;22.77;17.52;;;2.90;1.00;;;2.81;43.78;103176.00;4975843;28;20191;-68
2022/03/21 04:05:35;;;;;;;27.20;18.38;;;2.90;1.00;;;2.62;44.40;103170.09;4975594;28;20198;-67
2022/03/21 04:08:05;;;;;;;23.83;15.98;;;2.90;1.00;;;2.69;44.59;103163.44;4975532;28;20207;-67
2022/03/21 04:10:34;;;;;;;29.05;18.83;;;2.90;1.00;;;2.57;44.35;103159.69;4975457;28;20200;-67
2022/03/21 04:13:03;;;;;;;26.63;19.33;;;2.80;1.00;;;2.69;44.09;103160.75;4975685;28;20193;-67
2022/03/21 04:15:32;;;;;;;24.85;18.85;;;2.80;1.00;;;2.59;44.48;103164.94;4974240;28;20237;-68
2022/03/21 04:18:04;;;;;;;27.27;19.50;;;2.80;1.00;;;2.54;44.76;103162.56;4975851;28;20218;-68
2022/03/21 04:20:36;;;;;;;22.67;17.33;;;2.70;1.00;;;2.48;44.96;103154.06;4975760;28;20191;-67
2022/03/21 04:23:07;;;;;;;23.23;17.08;;;2.70;1.00;;;2.47;44.67;103165.72;4975567;28;20642;-67
2022/03/21 04:25:36;;;;;;;27.08;17.42;;;2.70;1.00;;;2.55;44.51;103168.78;4975662;28;20202;-67
2022/03/21 04:28:09;;;;;;;31.73;19.88;;;2.70;1.00;;;2.66;43.94;103168.97;5043469;23;20257;-70
2022/03/21 04:30:39;;;;;;;25.88;19.40;;;2.80;1.00;;;2.48;44.31;103175.44;4981408;28;20663;-70
2022/03/21 04:33:12;;;;;;;24.13;18.50;;;2.70;1.00;;;2.43;44.86;103169.50;4994732;28;20242;-70
2022/03/21 04:35:43;;;;;;;25.20;18.55;;;2.70;1.00;;;2.40;44.48;103178.59;4994674;28;20203;-70
2022/03/21 04:38:14;;;;;;;29.67;20.00;;;2.60;1.00;;;2.44;44.27;103172.09;4988652;28;20223;-69
2022/03/21 04:40:45;;;;;;;24.58;18.63;;;2.60;1.00;;;2.60;44.09;103164.00;4975589;28;20180;-70
2022/03/21 04:43:16;;;;;;;28.85;19.35;;;2.70;1.00;;;2.62;43.90;103170.09;4975328;28;20180;-71
2022/03/21 04:45:47;;;;;;;24.55;17.88;;;2.70;1.00;;;2.57;43.96;103174.88;4975325;28;20633;-70
2022/03/21 04:48:18;;;;;;;27.85;19.55;;;2.70;1.00;;;2.47;44.23;103173.75;4974574;28;20210;-69
2022/03/21 04:50:48;;;;;;;25.77;18.98;;;2.70;1.00;;;2.45;44.00;103170.28;4974599;28;20183;-69
2022/03/21 04:53:17;;;;;;;24.10;18.95;;;2.60;1.00;;;2.44;44.06;103172.09;4975255;28;20282;-70
2022/03/21 04:55:46;;;;;;;26.45;18.65;;;2.60;1.00;;;2.38;44.25;103182.28;4974731;28;20222;-71
2022/03/21 04:58:15;;;;;;;24.42;18.98;;;2.60;1.00;;;2.45;44.08;103173.81;4974757;28;20675;-69
2022/03/21 05:00:44;;;;;;;22.05;16.77;;;2.60;1.00;;;2.43;44.26;103186.41;4974911;28;20287;-69
2022/03/21 05:03:13;;;;;;;27.20;18.88;;;2.60;1.00;;;2.55;43.92;103179.47;4975453;28;20199;-69
2022/03/21 05:05:46;;;;;;;27.33;19.55;;;2.60;1.00;;;2.55;43.84;103185.66;4975132;28;20412;-69
2022/03/21 05:08:15;;;;;;;20.90;16.67;;;2.70;1.00;;;2.47;43.91;103187.09;4975362;28;20244;-70
2022/03/21 05:10:44;;;;;;;32.53;18.92;;;2.70;1.00;;;2.32;44.01;103188.91;4974802;28;20191;-70
2022/03/21 05:13:15;;;;;;;32.53;18.60;;;2.60;1.00;;;2.46;43.86;103194.25;4974671;28;20623;-69
2022/03/21 05:15:44;;;;;;;25.63;19.90;;;2.60;1.00;;;2.41;44.07;103198.16;4974516;28;20196;-70
2022/03/21 05:18:13;;;;;;;26.92;19.02;;;2.60;1.00;;;2.52;43.89;103206.38;4974663;28;20352;-70
2022/03/21 05:20:43;;;;;;;28.83;20.17;;;2.60;1.00;;;2.51;44.16;103204.66;4974398;28;20184;-71
2022/03/21 05:31:32;;;;;;;23.45;18.73;;;2.70;1.00;;;2.47;44.12;103198.63;4974179;28;20179;-69
2022/03/21 05:36:48;;;;;;;24.27;16.95;;;2.60;1.00;;;2.56;43.84;103205.25;4974647;28;20258;-70
2022/03/21 05:39:18;;;;;;;25.85;18.50;;;2.60;1.00;;;2.59;43.92;103197.88;4974158;28;20222;-69
2022/03/21 05:41:48;;;;;;;30.10;19.88;;;2.70;1.00;;;2.69;43.73;103194.66;4968135;28;20528;-70
2022/03/21 05:44:17;;;;;;;23.83;18.02;;;2.70;1.00;;;2.76;43.36;103187.97;4955419;29;20649;-71
2022/03/21 05:46:46;;;;;;;30.80;18.23;;;2.80;1.00;;;2.89;43.12;103189.78;4955368;29;20188;-71
2022/03/21 05:49:14;;;;;;;27.55;17.83;;;2.90;1.00;;;2.86;43.06;103192.63;4957559;28;20263;-70
2022/03/21 05:51:43;;;;;;;25.80;19.20;;;2.90;1.00;;;2.96;43.03;103196.44;4957164;29;20188;-70
2022/03/21 05:54:14;;;;;;;26.23;17.35;;;3.00;1.00;;;3.06;42.75;103194.03;4964438;29;20196;-69
2022/03/21 05:56:45;;;;;;;23.65;18.15;;;3.10;1.00;;;3.11;42.94;103204.44;4977313;29;20187;-71
2022/03/21 06:02:02;;;;;;;32.00;20.90;;;3.10;1.00;;;3.21;42.44;103205.59;4987484;28;20186;-71
2022/03/21 06:04:31;;;;;;;22.48;16.58;;;3.20;1.00;;;3.31;41.95;103206.72;5001299;28;20258;-70
2022/03/21 06:07:01;;;;;;;23.80;17.17;;;3.30;1.00;;;3.36;42.11;103207.28;5001983;28;20214;-69
2022/03/21 06:09:34;;;;;;;24.27;17.20;;;3.30;1.00;;;3.46;41.83;103214.63;5002390;28;20256;-69
2022/03/21 06:12:07;;;;;;;25.05;17.15;;;3.40;1.00;;;3.55;41.69;103217.63;4985924;28;20172;-69
2022/03/21 06:14:37;;;;;;;30.42;18.75;;;3.50;1.00;;;3.54;41.75;103214.09;5001447;28;20199;-70
2022/03/21 06:17:07;;;;;;;27.67;18.70;;;3.50;1.00;;;3.58;41.55;103221.00;4979998;28;20184;-71
2022/03/21 06:19:36;;;;;;;20.90;16.90;;;3.50;1.00;;;3.63;41.24;103224.19;4964465;28;20216;-70
2022/03/21 06:22:07;;;;;;;28.13;18.48;;;3.60;1.00;;;3.63;41.14;103220.69;4961638;28;20516;-70
2022/03/21 06:24:36;;;;;;;24.65;17.75;;;3.60;1.00;;;3.63;41.26;103224.19;4961220;28;20230;-69
2022/03/21 06:27:08;;;;;;;28.17;17.75;;;3.60;1.00;;;3.74;40.78;103232.41;4961703;28;20617;-69
2022/03/21 06:29:41;;;;;;;24.27;17.58;;;3.70;1.00;;;3.75;40.78;103228.78;4962337;28;20219;-70
2022/03/21 06:32:13;;;;;;;23.63;18.23;;;3.70;1.00;;;3.73;41.09;103240.53;4963965;28;20191;-70
2022/03/21 06:34:43;;;;;;;24.50;19.00;;;3.70;1.00;;;3.82;40.86;103235.47;4968568;28;20621;-69
2022/03/21 06:37:13;;;;;;;24.20;17.80;;;3.80;1.00;;;3.90;40.78;103235.78;4990588;28;20222;-69
2022/03/21 06:39:43;;;;;;;38.08;21.25;;;3.80;1.00;;;3.94;41.02;103242.66;4990981;28;20283;-71
2022/03/21 06:42:16;;;;;;;23.40;18.70;;;3.90;1.00;;;4.07;40.48;103241.81;4969557;28;20598;-69
2022/03/21 06:44:46;;;;;;;26.00;18.45;;;4.00;1.00;;;4.06;40.47;103227.59;4984106;28;20215;-71
2022/03/21 06:47:17;;;;;;;24.35;18.52;;;4.00;1.00;;;4.14;40.22;103230.59;4967147;28;20191;-69
2022/03/21 06:49:47;;;;;;;25.27;18.25;;;4.10;1.00;;;4.20;40.09;103234.69;4965866;28;20219;-70
2022/03/21 06:52:18;;;;;;;29.48;18.60;;;4.20;1.00;;;4.27;40.04;103235.97;4964557;28;20282;-72
2022/03/21 06:54:50;;;;;;;28.45;19.35;;;4.20;1.00;;;4.38;39.64;103233.44;4978040;28;20175;-70
2022/03/21 06:57:21;;;;;;;30.13;19.95;;;4.30;1.00;;;4.47;39.73;103232.81;4977678;28;20526;-70
2022/03/21 06:59:51;;;;;;;32.10;18.73;;;4.40;1.00;;;4.65;39.14;103231.50;4976516;28;20231;-72
2022/03/21 07:02:23;;;;;;;32.10;18.85;;;4.50;1.00;;;4.77;39.04;103229.81;4941892;29;20199;-71
2022/03/21 07:04:53;;;;;;;28.60;19.17;;;4.60;1.00;;;4.86;38.94;103234.53;4956988;29;20267;-70
2022/03/21 07:07:22;;;;;;;24.13;17.80;;;4.80;1.00;;;5.02;38.49;103235.16;4957802;29;20176;-70
2022/03/21 07:09:52;;;;;;;30.40;18.95;;;4.90;1.00;;;5.26;37.89;103235.22;4956508;28;20227;-70
2022/03/21 07:12:24;;;;;;;24.40;18.88;;;5.10;1.00;;;5.31;37.81;103235.75;4939647;29;20184;-71
2022/03/21 07:14:54;;;;;;;26.90;18.80;;;5.20;1.00;;;5.44;37.96;103235.72;4956682;29;20226;-70
2022/03/21 07:17:24;;;;;;;30.17;19.75;;;5.30;1.00;;;5.47;37.23;103239.03;4940454;29;20198;-70
2022/03/21 07:19:54;;;;;;;27.38;19.33;;;5.40;1.00;;;5.54;37.31;103243.00;4941055;29;20563;-70
2022/03/21 07:22:25;;;;;;;26.08;19.60;;;5.50;1.00;;;5.68;37.34;103240.13;4943224;29;20180;-69
2022/03/21 07:24:56;;;;;;;25.00;18.20;;;5.60;1.00;;;5.91;37.14;103240.28;4941348;29;20732;-70
2022/03/21 07:27:27;;;;;;;25.50;17.77;;;5.70;1.00;;;6.13;36.88;103239.53;4957696;29;20188;-70
2022/03/21 07:29:57;;;;;;;21.50;17.05;;;5.90;1.00;;;6.23;35.77;103244.09;4944480;29;20278;-70
2022/03/21 07:32:28;;;;;;;21.35;16.30;;;6.10;1.00;;;6.27;35.74;103236.66;4940090;29;20208;-70
2022/03/21 07:34:58;;;;;;;26.70;17.35;;;6.10;1.00;;;6.35;35.76;103237.75;4956439;29;20196;-70
2022/03/21 07:37:27;;;;;;;22.63;16.70;;;6.20;1.00;;;6.47;35.37;103242.22;4940853;29;20184;-70
2022/03/21 07:39:57;;;;;;;23.63;15.57;;;6.30;1.00;;;6.69;35.06;103241.38;4940418;29;20616;-71
2022/03/21 07:42:29;;;;;;;16.33;13.63;;;6.50;1.00;;;6.80;33.90;103240.56;4939927;29;20195;-70
2022/03/21 07:47:45;;;;;;;17.33;13.00;;;6.90;1.00;;;7.15;33.96;103230.53;4939462;28;20287;-71
2022/03/21 07:50:15;;;;;;;23.00;12.20;;;7.00;1.00;;;7.25;32.97;103236.03;4956704;29;20180;-69
2022/03/21 07:52:44;;;;;;;14.65;13.07;;;7.10;1.00;;;7.40;33.15;103235.66;4939408;29;20211;-71
2022/03/21 07:55:14;;;;;;;15.93;13.00;;;7.20;1.00;;;7.34;32.48;103222.69;4955503;29;20200;-70
2022/03/21 07:57:44;;;;;;;20.17;13.75;;;7.30;1.00;;;7.44;32.85;103225.50;4956504;28;20214;-70
2022/03/21 08:00:15;;;;;;;15.60;12.45;;;7.30;1.00;;;7.69;32.51;103229.72;4956419;29;20176;-70
2022/03/21 08:02:45;;;;;;;14.88;12.18;;;7.50;1.00;;;7.66;32.26;103230.81;4939425;29;20204;-70
2022/03/21 08:05:15;;;;;;;23.08;14.68;;;7.50;1.00;;;7.63;32.43;103224.81;4956242;29;20251;-70
2022/03/21 08:07:44;;;;;;;16.60;13.27;;;7.50;1.00;;;7.79;32.88;103231.50;4956453;28;20188;-70
2022/03/21 08:10:15;;;;;;;16.98;13.48;;;7.70;1.00;;;7.78;31.88;103223.56;4962807;28;20253;-72
2022/03/21 08:12:46;;;;;;;13.90;12.02;;;7.70;1.00;;;7.92;32.22;103225.09;4963081;28;20547;-69
2022/03/21 08:15:18;;;;;;;24.30;14.25;;;7.80;1.00;;;7.88;31.93;103240.69;4968478;28;20688;-72
2022/03/21 08:17:52;;;;;;;17.77;13.00;;;7.80;1.00;;;8.03;31.82;103231.31;4966918;28;20719;-73
2022/03/21 08:20:22;;;;;;;16.58;12.93;;;7.90;1.00;;;8.07;32.06;103238.16;4976076;28;20234;-72
2022/03/21 08:22:52;;;;;;;18.55;13.20;;;7.90;1.00;;;8.19;31.48;103231.72;4964981;28;20187;-72
2022/03/21 08:25:22;;;;;;;18.30;14.10;;;8.10;1.00;;;8.31;31.66;103226.31;4965056;28;20227;-72
2022/03/21 08:27:52;;;;;;;18.90;12.60;;;8.10;1.00;;;8.32;31.44;103226.19;4962608;28;20215;-72
2022/03/21 08:30:22;;;;;;;18.35;14.98;;;8.20;1.00;;;8.55;31.40;103233.16;4954958;28;20203;-73
2022/03/21 08:32:52;;;;;;;22.50;13.25;;;8.40;1.00;;;8.72;30.80;103226.28;4973709;28;20190;-73
2022/03/21 08:35:21;;;;;;;15.30;12.50;;;8.50;1.00;;;8.64;30.89;103220.69;4958188;29;20567;-72
2022/03/21 08:37:51;;;;;;;17.67;13.40;;;8.50;1.00;;;8.65;30.94;103214.31;4962143;28;20767;-72
2022/03/21 08:40:20;;;;;;;12.57;11.27;;;8.50;1.00;;;8.73;30.32;103211.78;4974731;28;20210;-72
2022/03/21 08:42:51;;;;;;;13.80;11.23;;;8.60;1.00;;;8.90;30.65;103208.50;4975026;28;20184;-73
2022/03/21 08:45:21;;;;;;;14.75;12.73;;;8.70;1.00;;;9.15;30.76;103216.09;4975029;28;20226;-71
2022/03/21 08:47:51;;;;;;;14.07;11.85;;;8.90;1.00;;;9.07;29.83;103209.69;4986889;28;20246;-72
2022/03/21 08:50:24;;;;;;;16.75;12.35;;;8.90;1.00;;;8.89;30.50;103201.38;4975116;28;20664;-72
2022/03/21 08:52:56;;;;;;;15.93;11.32;;;8.80;1.00;;;8.93;29.79;103202.81;4974742;28;20216;-73
2022/03/21 08:55:26;;;;;;;19.55;12.13;;;8.80;1.00;;;8.99;29.96;103191.47;4974458;28;20561;-72
2022/03/21 08:57:57;;;;;;;14.20;12.10;;;8.80;1.00;;;9.19;30.02;103188.84;4965211;28;20233;-73
2022/03/21 09:00:51;;;;;;;14.15;12.13;;;9.00;1.00;;;9.33;29.38;103188.44;4964670;28;20200;-72
2022/03/21 09:03:20;;;;;;;16.50;12.27;;;9.10;1.00;;;9.52;29.43;103192.03;4961628;28;20250;-72
2022/03/21 09:05:50;;;;;;;12.85;10.52;;;9.30;1.00;;;9.61;29.12;103198.44;4961398;28;20526;-70
2022/03/21 09:08:19;;;;;;;14.93;11.50;;;9.40;1.00;;;9.58;28.82;103175.25;4958470;28;20295;-71
2022/03/21 09:10:48;;;;;;;14.48;10.60;;;9.40;1.00;;;9.45;28.87;103177.38;4956145;28;20196;-71
2022/03/21 09:13:20;;;;;;;14.13;11.50;;;9.40;1.00;;;9.59;28.55;103173.41;4964965;28;20192;-71
2022/03/21 09:15:50;;;;;;;13.38;10.75;;;9.50;1.00;;;9.77;28.56;103171.72;4965369;28;20697;-73
2022/03/21 09:18:19;;;;;;;15.40;10.23;;;9.50;1.00;;;9.92;28.17;103172.16;4979995;28;20214;-73
2022/03/21 09:20:48;;;;;;;12.90;10.95;;;9.70;1.00;;;10.06;27.76;103168.16;4979943;28;20265;-73
2022/03/21 09:23:21;;;;;;;13.20;10.10;;;9.80;1.00;;;10.13;28.13;103166.56;4977247;28;20175;-72
2022/03/21 09:25:50;;;;;;;13.48;9.88;;;9.90;1.00;;;10.15;27.58;103165.44;4958438;28;20188;-73
2022/03/21 09:28:21;;;;;;;13.65;10.80;;;10.00;1.00;;;10.23;27.19;103172.84;4976409;28;20215;-72
2022/03/21 09:30:50;;;;;;;12.60;10.65;;;10.10;1.00;;;10.27;27.30;103164.28;4976037;28;20175;-71
2022/03/21 09:33:19;;;;;;;13.43;10.02;;;10.10;1.00;;;10.24;27.38;103161.03;4976381;28;20192;-71
2022/03/21 09:35:49;;;;;;;14.80;10.40;;;10.10;1.00;;;10.41;27.20;103168.41;4976156;28;20645;-74
2022/03/21 09:38:20;;;;;;;12.27;10.10;;;10.20;1.00;;;10.33;27.17;103165.56;4975064;28;20276;-73
2022/03/21 09:40:49;;;;;;;11.50;10.05;;;10.20;1.00;;;10.56;27.25;103169.63;4970925;28;20257;-74
2022/03/21 09:43:18;;;;;;;22.77;10.57;;;10.40;1.00;;;10.65;27.32;103166.03;4956472;29;20227;-73
2022/03/21 09:45:49;;;;;;;11.50;10.30;;;10.40;1.00;;;10.56;27.17;103164.22;4956725;29;20192;-75
2022/03/21 09:48:20;;;;;;;11.18;9.95;;;10.40;1.00;;;10.62;27.07;103158.22;4956321;28;20214;-74
2022/03/21 09:50:51;;;;;;;18.67;12.00;;;10.40;1.00;;;10.80;27.27;103161.00;4955351;29;20202;-73
2022/03/21 09:53:21;;;;;;;12.20;11.00;;;10.60;1.00;;;10.84;26.95;103160.56;4937941;29;20191;-72
2022/03/21 09:55:50;;;;;;;15.10;12.17;;;10.60;1.00;;;10.97;26.36;103157.53;4956237;29;20448;-73
2022/03/21 09:58:20;;;;;;;17.05;11.27;;;10.70;1.00;;;10.95;26.72;103158.66;4956121;28;20518;-71
2022/03/21 10:00:50;;;;;;;13.00;11.07;;;10.80;1.00;;;11.03;26.75;103150.66;4955100;29;20188;-71
2022/03/21 10:03:22;;;;;;;15.30;10.80;;;10.80;1.00;;;10.92;26.79;103158.97;4954680;29;20786;-71
2022/03/21 10:05:51;;;;;;;14.10;11.10;;;10.80;1.00;;;10.74;26.77;103161.63;4954690;29;20912;-73
2022/03/21 10:08:23;;;;;;;12.75;11.07;;;10.70;1.00;;;10.78;26.84;103150.34;4954952;28;20452;-72
2022/03/21 10:10:55;;;;;;;12.57;11.27;;;10.60;1.00;;;10.89;26.92;103147.41;4954335;29;20283;-72
2022/03/21 10:13:27;;;;;;;17.13;12.00;;;10.70;1.00;;;11.06;26.97;103148.47;4957915;28;20212;-72
2022/03/21 10:16:13;;;;;;;14.20;11.70;;;10.80;1.00;;;11.15;26.94;103138.59;4965642;28;20183;-72
2022/03/21 10:18:59;;;;;;;12.30;10.00;;;10.90;1.00;;;11.23;26.64;103146.84;4949433;28;20550;-72
2022/03/21 10:21:30;;;;;;;13.63;9.83;;;11.00;1.00;;;11.33;26.90;103139.47;4960942;28;20807;-71
2022/03/21 10:24:07;;;;;;;14.40;11.27;;;11.10;1.00;;;11.41;26.70;103134.16;4934771;29;20455;-72
2022/03/21 10:26:41;;;;;;;19.03;11.30;;;11.20;1.00;;;11.50;26.45;103144.06;4934921;29;20408;-71
2022/03/21 10:29:17;;;;;;;17.00;10.10;;;11.30;1.00;;;11.22;26.46;103145.97;4960588;23;20482;-67
2022/03/21 10:31:51;;;;;;;13.63;11.37;;;11.20;1.00;;;11.26;26.55;103139.25;4960727;28;20416;-66
2022/03/21 10:34:24;;;;;;;11.60;10.40;;;11.10;1.00;;;11.64;26.54;103129.97;4953154;29;20772;-66
2022/03/21 10:37:02;;;;;;;13.03;11.77;;;11.30;1.00;;;11.46;26.64;103142.69;4952779;28;20431;-67
2022/03/21 10:39:35;;;;;;;13.70;11.00;;;11.30;1.00;;;11.37;26.54;103131.91;4953092;28;20837;-66
2022/03/21 10:42:07;;;;;;;14.73;10.30;;;11.20;1.00;;;11.48;26.19;103135.22;4953016;29;20427;-66
2022/03/21 10:44:38;;;;;;;11.73;9.67;;;11.30;1.00;;;11.57;25.91;103134.28;4953517;29;20424;-67
2022/03/21 10:47:09;;;;;;;12.50;11.20;;;11.30;1.00;;;11.47;25.94;103133.53;4954521;28;20852;-70
2022/03/21 10:49:43;;;;;;;15.10;9.37;;;11.30;1.00;;;11.49;25.96;103127.94;4956720;28;20462;-69
2022/03/21 10:52:18;;;;;;;15.70;11.30;;;11.30;1.00;;;11.77;25.70;103125.03;4957085;29;20416;-70
2022/03/21 10:54:50;;;;;;;14.83;10.30;;;11.50;1.00;;;11.88;25.30;103125.81;4958887;28;20843;-69